createdAt,value
2023-09-16T00:03:19.114Z,100946.63
2023-09-16T00:13:23.126Z,100946.71
2023-09-16T00:23:26.985Z,100943.09
2023-09-16T00:33:31.475Z,100939.77
2023-09-16T00:43:35.784Z,100941.96
2023-09-16T00:53:39.696Z,100936.99
2023-09-16T01:03:44.319Z,100940.63
2023-09-16T01:13:51.699Z,100939.55
2023-09-16T01:24:24.904Z,100942.45
2023-09-16T01:34:41.468Z,100941.73
2023-09-16T01:44:45.228Z,100945.41
2023-09-16T01:54:49.009Z,100945.71
2023-09-16T02:04:54.946Z,100943.25
2023-09-16T02:14:58.887Z,100941.55
2023-09-16T02:25:04.991Z,100941.04
2023-09-16T02:35:09.099Z,100942.55
2023-09-16T02:45:13.403Z,100938.80
2023-09-16T02:55:18.001Z,100944.35
2023-09-16T03:05:22.219Z,100943.78
2023-09-16T03:15:26.054Z,100950.92
2023-09-16T03:25:29.904Z,100944.98
2023-09-16T03:35:36.227Z,100940.20
2023-09-16T03:45:40.518Z,100938.88
2023-09-16T03:55:44.543Z,100938.63
2023-09-16T04:05:49.707Z,100939.53
2023-09-16T04:15:53.570Z,100934.24
2023-09-16T04:25:58.413Z,100932.25
2023-09-16T04:36:05.504Z,100935.94
2023-09-16T04:46:10.503Z,100935.59
2023-09-16T04:56:21.809Z,100934.89
2023-09-16T05:06:30.357Z,100940.48
2023-09-16T05:16:35.357Z,100939.23
2023-09-16T05:26:45.358Z,100946.20
2023-09-16T05:36:49.354Z,100952.75
2023-09-16T05:46:56.291Z,100949.17
2023-09-16T05:57:01.811Z,100942.98
2023-09-16T06:07:05.725Z,100942.19
2023-09-16T06:17:09.678Z,100948.85
2023-09-16T06:27:15.577Z,100946.86
2023-09-16T06:37:19.358Z,100940.92
2023-09-16T06:47:28.130Z,100940.14
2023-09-16T06:57:33.145Z,100943.79
2023-09-16T07:07:39.157Z,100948.23
2023-09-16T07:17:43.010Z,100944.36
2023-09-16T07:27:47.404Z,100943.16
2023-09-16T07:37:52.656Z,100940.95
2023-09-16T07:47:56.407Z,100937.30
2023-09-16T07:58:00.241Z,100941.44
2023-09-16T08:08:05.652Z,100938.05
2023-09-16T08:18:09.422Z,100934.40
2023-09-16T08:28:13.319Z,100934.98
2023-09-16T08:38:17.357Z,100921.51
2023-09-16T08:48:23.385Z,100915.77
2023-09-16T08:58:28.388Z,100909.13
2023-09-16T09:08:34.449Z,100905.92
2023-09-16T09:18:40.080Z,100904.00
2023-09-16T09:28:48.433Z,100899.85
2023-09-16T09:38:52.841Z,100897.42
2023-09-16T09:48:57.669Z,100886.33
2023-09-16T09:59:02.202Z,100872.98
2023-09-16T10:09:06.690Z,100860.18
2023-09-16T10:19:12.276Z,100844.84
2023-09-16T10:29:18.028Z,100841.52
2023-09-16T10:39:22.993Z,100831.25
2023-09-16T10:49:26.910Z,100816.13
2023-09-16T10:59:33.148Z,100799.23
2023-09-16T11:09:37.384Z,100779.74
2023-09-16T11:19:43.479Z,100774.76
2023-09-16T11:29:52.547Z,100770.72
2023-09-16T11:40:02.391Z,100762.02
2023-09-16T11:50:20.783Z,100753.95
2023-09-16T12:00:24.558Z,100746.10
2023-09-16T12:10:28.548Z,100738.62
2023-09-16T12:20:33.671Z,100731.61
2023-09-16T12:30:44.820Z,100710.73
2023-09-16T12:40:52.863Z,100690.00
2023-09-16T12:50:57.446Z,100675.92
2023-09-16T13:01:01.259Z,100663.29
2023-09-16T13:11:05.302Z,100641.79
2023-09-16T13:21:09.146Z,100633.18
2023-09-16T13:31:12.925Z,100623.99
2023-09-16T13:41:16.728Z,100621.27
2023-09-16T13:51:20.653Z,100617.45
2023-09-16T14:01:25.647Z,100603.87
2023-09-16T14:11:29.855Z,100603.44
2023-09-16T14:21:33.565Z,100600.16
2023-09-16T14:31:37.595Z,100588.06
2023-09-16T14:41:41.552Z,100578.10
2023-09-16T14:51:48.520Z,100561.67
2023-09-16T15:01:52.306Z,100548.92
2023-09-16T15:11:56.258Z,100550.92
2023-09-16T15:22:00.063Z,100545.31
2023-09-16T15:32:33.969Z,100541.98
2023-09-16T15:42:28.103Z,100534.37
2023-09-16T15:52:31.840Z,100532.52
2023-09-16T16:02:38.148Z,100526.89
2023-09-16T16:12:43.700Z,100521.62
2023-09-16T16:22:47.869Z,100519.61
2023-09-16T16:32:52.246Z,100516.80
2023-09-16T16:42:56.017Z,100508.95
2023-09-16T16:53:00.350Z,100506.23
2023-09-16T17:03:05.938Z,100510.83
2023-09-16T17:13:10.805Z,100513.84
2023-09-16T17:23:17.552Z,100515.77
2023-09-16T17:33:22.042Z,100510.87
2023-09-16T17:43:25.924Z,100510.56
2023-09-16T17:53:30.476Z,100510.46
2023-09-16T18:03:34.372Z,100508.50
2023-09-16T18:13:39.818Z,100504.31
2023-09-16T18:23:43.620Z,100499.53
2023-09-16T18:33:48.040Z,100499.42
2023-09-16T18:43:55.460Z,100501.70
2023-09-16T19:05:02.224Z,100483.56
2023-09-16T19:15:07.757Z,100483.52
2023-09-16T19:25:12.538Z,100484.43
2023-09-16T19:35:17.644Z,100480.85
2023-09-16T19:45:21.528Z,100473.88
2023-09-16T19:55:26.965Z,100466.10
2023-09-16T20:05:30.854Z,100459.14
2023-09-16T20:15:34.823Z,100457.84
2023-09-16T20:25:40.102Z,100457.59
2023-09-16T20:35:44.394Z,100454.73
2023-09-16T20:45:48.290Z,100460.48
2023-09-16T20:55:53.405Z,100462.97
2023-09-16T21:05:57.215Z,100461.36
2023-09-16T21:16:01.744Z,100458.58
2023-09-16T21:26:05.566Z,100454.08
2023-09-16T21:36:09.299Z,100451.11
2023-09-16T21:46:14.416Z,100449.60
2023-09-16T21:56:19.181Z,100443.27
2023-09-16T22:06:22.889Z,100440.61
2023-09-16T22:16:27.972Z,100434.38
2023-09-16T22:26:32.827Z,100432.22
2023-09-16T22:36:36.525Z,100430.16
2023-09-16T22:46:40.320Z,100432.67
2023-09-16T22:56:44.586Z,100424.71
2023-09-16T23:06:48.728Z,100423.23
2023-09-16T23:16:52.879Z,100421.70
2023-09-16T23:26:56.605Z,100415.64
2023-09-16T23:37:01.571Z,100414.95
2023-09-16T23:47:05.622Z,100415.72
2023-09-16T23:57:09.444Z,100411.94
